sensor_id;sensor_type;location;lat;lon;timestamp;P1;durP1;ratioP1;P2;durP2;ratioP2
67544;SDS011;54380;47.770;11.150;2023-02-23T00:35:41;15.75;;;5.15;;
67544;SDS011;54380;47.770;11.150;2023-02-23T00:38:22;16.67;;;5.80;;
67544;SDS011;54380;47.770;11.150;2023-02-23T00:41:03;15.07;;;4.55;;
67544;SDS011;54380;47.770;11.150;2023-02-23T00:46:28;18.00;;;3.88;;
67544;SDS011;54380;47.770;11.150;2023-02-23T00:49:10;15.60;;;4.78;;
67544;SDS011;54380;47.770;11.150;2023-02-23T01:23:56;17.15;;;5.55;;
67544;SDS011;54380;47.770;11.150;2023-02-23T01:26:39;18.15;;;4.80;;
67544;SDS011;54380;47.770;11.150;2023-02-23T01:29:21;19.27;;;5.47;;
67544;SDS011;54380;47.770;11.150;2023-02-23T01:31:50;16.08;;;5.05;;
67544;SDS011;54380;47.770;11.150;2023-02-23T01:34:17;14.80;;;4.45;;
67544;SDS011;54380;47.770;11.150;2023-02-23T01:37:01;17.10;;;6.00;;
67544;SDS011;54380;47.770;11.150;2023-02-23T01:49:10;16.50;;;5.03;;
67544;SDS011;54380;47.770;11.150;2023-02-23T01:51:58;17.20;;;4.53;;
67544;SDS011;54380;47.770;11.150;2023-02-23T01:54:42;13.73;;;3.72;;
67544;SDS011;54380;47.770;11.150;2023-02-23T01:57:29;16.38;;;4.50;;
67544;SDS011;54380;47.770;11.150;2023-02-23T02:00:13;16.48;;;4.13;;
67544;SDS011;54380;47.770;11.150;2023-02-23T02:08:31;14.77;;;5.13;;
67544;SDS011;54380;47.770;11.150;2023-02-23T02:11:17;13.38;;;3.38;;
67544;SDS011;54380;47.770;11.150;2023-02-23T02:14:17;15.77;;;3.78;;
67544;SDS011;54380;47.770;11.150;2023-02-23T02:16:55;15.68;;;4.22;;
67544;SDS011;54380;47.770;11.150;2023-02-23T02:23:20;13.05;;;3.45;;
67544;SDS011;54380;47.770;11.150;2023-02-23T02:26:33;15.70;;;3.95;;
67544;SDS011;54380;47.770;11.150;2023-02-23T02:32:31;14.38;;;4.20;;
67544;SDS011;54380;47.770;11.150;2023-02-23T02:35:27;18.20;;;4.28;;
67544;SDS011;54380;47.770;11.150;2023-02-23T02:41:24;15.15;;;4.40;;
67544;SDS011;54380;47.770;11.150;2023-02-23T02:44:09;13.20;;;3.72;;
67544;SDS011;54380;47.770;11.150;2023-02-23T02:46:43;13.70;;;3.38;;
67544;SDS011;54380;47.770;11.150;2023-02-23T02:49:28;14.98;;;3.95;;
67544;SDS011;54380;47.770;11.150;2023-02-23T02:52:13;13.43;;;4.03;;
67544;SDS011;54380;47.770;11.150;2023-02-23T02:54:48;13.23;;;3.75;;
67544;SDS011;54380;47.770;11.150;2023-02-23T02:57:34;11.95;;;3.22;;
67544;SDS011;54380;47.770;11.150;2023-02-23T03:00:17;16.25;;;4.03;;
67544;SDS011;54380;47.770;11.150;2023-02-23T03:03:31;13.35;;;3.47;;
67544;SDS011;54380;47.770;11.150;2023-02-23T03:06:24;13.68;;;3.55;;
67544;SDS011;54380;47.770;11.150;2023-02-23T03:09:29;13.57;;;4.13;;
67544;SDS011;54380;47.770;11.150;2023-02-23T03:12:26;15.57;;;3.80;;
67544;SDS011;54380;47.770;11.150;2023-02-23T03:35:54;13.60;;;3.55;;
67544;SDS011;54380;47.770;11.150;2023-02-23T03:39:03;12.65;;;3.40;;
67544;SDS011;54380;47.770;11.150;2023-02-23T03:42:10;11.85;;;2.97;;
67544;SDS011;54380;47.770;11.150;2023-02-23T03:45:02;13.80;;;3.75;;
67544;SDS011;54380;47.770;11.150;2023-02-23T03:55:04;12.40;;;3.25;;
67544;SDS011;54380;47.770;11.150;2023-02-23T03:57:58;11.38;;;2.13;;
67544;SDS011;54380;47.770;11.150;2023-02-23T04:12:45;13.57;;;2.55;;
67544;SDS011;54380;47.770;11.150;2023-02-23T04:18:34;10.48;;;2.20;;
67544;SDS011;54380;47.770;11.150;2023-02-23T04:21:04;10.02;;;2.25;;
67544;SDS011;54380;47.770;11.150;2023-02-23T04:53:24;17.95;;;3.40;;
67544;SDS011;54380;47.770;11.150;2023-02-23T05:01:51;12.95;;;2.88;;
67544;SDS011;54380;47.770;11.150;2023-02-23T05:04:34;11.30;;;2.42;;
67544;SDS011;54380;47.770;11.150;2023-02-23T05:07:02;11.55;;;2.58;;
67544;SDS011;54380;47.770;11.150;2023-02-23T05:24:41;14.77;;;2.85;;
67544;SDS011;54380;47.770;11.150;2023-02-23T05:27:08;21.42;;;5.07;;
67544;SDS011;54380;47.770;11.150;2023-02-23T05:29:40;10.07;;;2.38;;
67544;SDS011;54380;47.770;11.150;2023-02-23T05:41:20;10.60;;;2.30;;
67544;SDS011;54380;47.770;11.150;2023-02-23T05:52:57;14.15;;;2.92;;
67544;SDS011;54380;47.770;11.150;2023-02-23T05:55:38;14.20;;;3.38;;
67544;SDS011;54380;47.770;11.150;2023-02-23T05:58:23;14.30;;;3.00;;
67544;SDS011;54380;47.770;11.150;2023-02-23T06:01:03;13.73;;;3.63;;
67544;SDS011;54380;47.770;11.150;2023-02-23T06:03:45;12.85;;;2.75;;
67544;SDS011;54380;47.770;11.150;2023-02-23T06:06:27;11.45;;;2.80;;
67544;SDS011;54380;47.770;11.150;2023-02-23T06:09:08;14.20;;;3.72;;
67544;SDS011;54380;47.770;11.150;2023-02-23T06:11:49;11.57;;;2.92;;
67544;SDS011;54380;47.770;11.150;2023-02-23T06:24:09;14.23;;;3.17;;
67544;SDS011;54380;47.770;11.150;2023-02-23T06:30:01;15.38;;;2.83;;
67544;SDS011;54380;47.770;11.150;2023-02-23T06:35:36;11.27;;;2.47;;
67544;SDS011;54380;47.770;11.150;2023-02-23T06:59:13;14.70;;;4.10;;
67544;SDS011;54380;47.770;11.150;2023-02-23T07:01:54;15.20;;;3.13;;
67544;SDS011;54380;47.770;11.150;2023-02-23T07:04:34;13.02;;;3.25;;
67544;SDS011;54380;47.770;11.150;2023-02-23T07:10:10;13.50;;;3.40;;
67544;SDS011;54380;47.770;11.150;2023-02-23T07:31:03;12.85;;;3.08;;
67544;SDS011;54380;47.770;11.150;2023-02-23T07:33:44;11.10;;;2.50;;
67544;SDS011;54380;47.770;11.150;2023-02-23T07:36:13;17.90;;;3.42;;
67544;SDS011;54380;47.770;11.150;2023-02-23T07:38:59;13.85;;;3.50;;
67544;SDS011;54380;47.770;11.150;2023-02-23T07:41:39;9.38;;;2.33;;
67544;SDS011;54380;47.770;11.150;2023-02-23T08:12:38;18.92;;;5.00;;
67544;SDS011;54380;47.770;11.150;2023-02-23T08:15:19;17.95;;;5.03;;
67544;SDS011;54380;47.770;11.150;2023-02-23T08:18:00;22.52;;;4.95;;
67544;SDS011;54380;47.770;11.150;2023-02-23T08:23:32;17.15;;;5.13;;
67544;SDS011;54380;47.770;11.150;2023-02-23T08:26:01;13.98;;;4.47;;
67544;SDS011;54380;47.770;11.150;2023-02-23T08:41:26;13.98;;;3.42;;
67544;SDS011;54380;47.770;11.150;2023-02-23T08:44:07;12.90;;;3.40;;
67544;SDS011;54380;47.770;11.150;2023-02-23T08:46:48;15.32;;;3.90;;
67544;SDS011;54380;47.770;11.150;2023-02-23T08:49:29;14.77;;;3.92;;
67544;SDS011;54380;47.770;11.150;2023-02-23T08:52:11;13.85;;;3.20;;
67544;SDS011;54380;47.770;11.150;2023-02-23T08:54:53;11.15;;;2.85;;
67544;SDS011;54380;47.770;11.150;2023-02-23T09:00:35;15.02;;;3.08;;
67544;SDS011;54380;47.770;11.150;2023-02-23T09:03:17;16.92;;;2.97;;
67544;SDS011;54380;47.770;11.150;2023-02-23T09:09:45;13.40;;;2.50;;
67544;SDS011;54380;47.770;11.150;2023-02-23T09:12:26;12.13;;;2.03;;
67544;SDS011;54380;47.770;11.150;2023-02-23T09:15:08;13.52;;;3.30;;
67544;SDS011;54380;47.770;11.150;2023-02-23T09:17:49;12.27;;;2.80;;
67544;SDS011;54380;47.770;11.150;2023-02-23T09:20:31;13.55;;;3.30;;
67544;SDS011;54380;47.770;11.150;2023-02-23T09:23:21;17.00;;;3.55;;
67544;SDS011;54380;47.770;11.150;2023-02-23T09:48:21;18.80;;;3.10;;
67544;SDS011;54380;47.770;11.150;2023-02-23T09:50:54;18.48;;;3.85;;
67544;SDS011;54380;47.770;11.150;2023-02-23T09:53:36;18.65;;;3.95;;
67544;SDS011;54380;47.770;11.150;2023-02-23T09:56:20;13.27;;;3.28;;
67544;SDS011;54380;47.770;11.150;2023-02-23T09:59:10;17.02;;;3.83;;
67544;SDS011;54380;47.770;11.150;2023-02-23T10:01:57;12.38;;;3.20;;
67544;SDS011;54380;47.770;11.150;2023-02-23T10:42:33;9.48;;;1.83;;
67544;SDS011;54380;47.770;11.150;2023-02-23T10:45:14;7.03;;;1.27;;
67544;SDS011;54380;47.770;11.150;2023-02-23T10:47:54;10.20;;;1.73;;
67544;SDS011;54380;47.770;11.150;2023-02-23T10:50:37;7.45;;;0.88;;
67544;SDS011;54380;47.770;11.150;2023-02-23T10:53:22;8.43;;;1.65;;
67544;SDS011;54380;47.770;11.150;2023-02-23T10:56:06;11.73;;;2.25;;
67544;SDS011;54380;47.770;11.150;2023-02-23T11:11:56;6.32;;;0.77;;
67544;SDS011;54380;47.770;11.150;2023-02-23T11:14:26;11.30;;;1.00;;
67544;SDS011;54380;47.770;11.150;2023-02-23T11:17:20;4.57;;;0.75;;
67544;SDS011;54380;47.770;11.150;2023-02-23T11:20:09;4.03;;;0.50;;
67544;SDS011;54380;47.770;11.150;2023-02-23T11:23:07;6.97;;;0.60;;
67544;SDS011;54380;47.770;11.150;2023-02-23T11:25:50;4.25;;;0.65;;
67544;SDS011;54380;47.770;11.150;2023-02-23T11:44:30;2.80;;;0.30;;
67544;SDS011;54380;47.770;11.150;2023-02-23T11:46:59;2.42;;;0.40;;
67544;SDS011;54380;47.770;11.150;2023-02-23T11:49:31;3.47;;;0.40;;
67544;SDS011;54380;47.770;11.150;2023-02-23T11:52:18;1.33;;;0.20;;
67544;SDS011;54380;47.770;11.150;2023-02-23T11:55:01;4.05;;;0.30;;
67544;SDS011;54380;47.770;11.150;2023-02-23T11:57:45;3.63;;;0.68;;
67544;SDS011;54380;47.770;11.150;2023-02-23T12:22:25;1.23;;;0.25;;
67544;SDS011;54380;47.770;11.150;2023-02-23T12:25:15;2.70;;;0.30;;
67544;SDS011;54380;47.770;11.150;2023-02-23T12:28:03;1.38;;;0.20;;
67544;SDS011;54380;47.770;11.150;2023-02-23T12:30:52;1.63;;;0.20;;
67544;SDS011;54380;47.770;11.150;2023-02-23T12:33:36;1.75;;;0.20;;
67544;SDS011;54380;47.770;11.150;2023-02-23T12:36:23;4.75;;;0.30;;
67544;SDS011;54380;47.770;11.150;2023-02-23T12:48:36;1.67;;;0.20;;
67544;SDS011;54380;47.770;11.150;2023-02-23T12:51:23;2.42;;;0.20;;
67544;SDS011;54380;47.770;11.150;2023-02-23T12:56:44;2.25;;;0.35;;
67544;SDS011;54380;47.770;11.150;2023-02-23T12:59:24;2.70;;;0.20;;
67544;SDS011;54380;47.770;11.150;2023-02-23T13:05:22;1.50;;;0.15;;
67544;SDS011;54380;47.770;11.150;2023-02-23T13:08:10;2.88;;;0.68;;
67544;SDS011;54380;47.770;11.150;2023-02-23T13:11:02;4.10;;;0.40;;
67544;SDS011;54380;47.770;11.150;2023-02-23T13:13:53;3.20;;;0.28;;
67544;SDS011;54380;47.770;11.150;2023-02-23T13:16:40;4.65;;;0.20;;
67544;SDS011;54380;47.770;11.150;2023-02-23T13:19:27;5.10;;;0.30;;
67544;SDS011;54380;47.770;11.150;2023-02-23T14:03:31;1.58;;;0.28;;
67544;SDS011;54380;47.770;11.150;2023-02-23T14:06:22;4.95;;;0.60;;
67544;SDS011;54380;47.770;11.150;2023-02-23T14:09:06;1.15;;;0.20;;
67544;SDS011;54380;47.770;11.150;2023-02-23T14:11:55;2.75;;;0.30;;
67544;SDS011;54380;47.770;11.150;2023-02-23T14:14:41;1.77;;;0.20;;
67544;SDS011;54380;47.770;11.150;2023-02-23T14:23:36;2.83;;;0.30;;
67544;SDS011;54380;47.770;11.150;2023-02-23T14:26:40;4.20;;;0.30;;
67544;SDS011;54380;47.770;11.150;2023-02-23T14:32:43;3.58;;;0.40;;
67544;SDS011;54380;47.770;11.150;2023-02-23T19:06:31;13.35;;;1.60;;
67544;SDS011;54380;47.770;11.150;2023-02-23T19:09:13;10.73;;;1.13;;
67544;SDS011;54380;47.770;11.150;2023-02-23T19:11:44;8.60;;;1.30;;
67544;SDS011;54380;47.770;11.150;2023-02-23T19:14:30;11.52;;;2.15;;
67544;SDS011;54380;47.770;11.150;2023-02-23T19:17:11;16.20;;;3.30;;
67544;SDS011;54380;47.770;11.150;2023-02-23T19:19:51;12.95;;;3.63;;
67544;SDS011;54380;47.770;11.150;2023-02-23T19:28:47;12.68;;;2.80;;
67544;SDS011;54380;47.770;11.150;2023-02-23T19:31:28;8.57;;;1.80;;
67544;SDS011;54380;47.770;11.150;2023-02-23T19:34:09;11.13;;;1.90;;
67544;SDS011;54380;47.770;11.150;2023-02-23T19:36:50;9.90;;;1.90;;
67544;SDS011;54380;47.770;11.150;2023-02-23T19:39:31;10.98;;;1.50;;
67544;SDS011;54380;47.770;11.150;2023-02-23T19:42:11;15.50;;;2.05;;
67544;SDS011;54380;47.770;11.150;2023-02-23T19:54:23;16.15;;;2.85;;
67544;SDS011;54380;47.770;11.150;2023-02-23T19:57:05;10.05;;;1.65;;
67544;SDS011;54380;47.770;11.150;2023-02-23T19:59:46;19.77;;;5.13;;
67544;SDS011;54380;47.770;11.150;2023-02-23T20:02:14;18.40;;;5.07;;
67544;SDS011;54380;47.770;11.150;2023-02-23T20:04:55;19.10;;;3.75;;
67544;SDS011;54380;47.770;11.150;2023-02-23T20:13:45;26.50;;;5.93;;
67544;SDS011;54380;47.770;11.150;2023-02-23T20:16:25;22.83;;;5.80;;
67544;SDS011;54380;47.770;11.150;2023-02-23T20:19:08;16.98;;;3.78;;
67544;SDS011;54380;47.770;11.150;2023-02-23T20:21:51;12.60;;;3.22;;
67544;SDS011;54380;47.770;11.150;2023-02-23T20:24:31;10.75;;;1.88;;
67544;SDS011;54380;47.770;11.150;2023-02-23T20:52:20;11.38;;;3.00;;
67544;SDS011;54380;47.770;11.150;2023-02-23T20:55:01;12.90;;;3.38;;
67544;SDS011;54380;47.770;11.150;2023-02-23T20:57:41;13.82;;;3.63;;
67544;SDS011;54380;47.770;11.150;2023-02-23T21:00:22;20.58;;;4.20;;
67544;SDS011;54380;47.770;11.150;2023-02-23T21:03:07;17.73;;;5.00;;
67544;SDS011;54380;47.770;11.150;2023-02-23T21:12:14;14.60;;;3.97;;
67544;SDS011;54380;47.770;11.150;2023-02-23T21:14:54;14.77;;;4.30;;
67544;SDS011;54380;47.770;11.150;2023-02-23T21:17:35;13.13;;;3.47;;
67544;SDS011;54380;47.770;11.150;2023-02-23T21:20:17;12.90;;;3.17;;
67544;SDS011;54380;47.770;11.150;2023-02-23T21:22:59;11.50;;;3.55;;
67544;SDS011;54380;47.770;11.150;2023-02-23T21:25:29;12.80;;;3.08;;
67544;SDS011;54380;47.770;11.150;2023-02-23T21:28:13;10.73;;;2.35;;
67544;SDS011;54380;47.770;11.150;2023-02-23T21:30:54;16.25;;;3.83;;
67544;SDS011;54380;47.770;11.150;2023-02-23T21:34:06;15.57;;;4.28;;
67544;SDS011;54380;47.770;11.150;2023-02-23T21:36:48;17.38;;;4.25;;
67544;SDS011;54380;47.770;11.150;2023-02-23T21:39:31;15.15;;;4.38;;
67544;SDS011;54380;47.770;11.150;2023-02-23T21:42:06;20.90;;;4.55;;
67544;SDS011;54380;47.770;11.150;2023-02-23T21:44:47;17.20;;;5.05;;
67544;SDS011;54380;47.770;11.150;2023-02-23T21:47:27;18.60;;;5.13;;
67544;SDS011;54380;47.770;11.150;2023-02-23T22:05:26;15.18;;;4.43;;
67544;SDS011;54380;47.770;11.150;2023-02-23T22:08:06;14.40;;;4.05;;
67544;SDS011;54380;47.770;11.150;2023-02-23T22:10:42;16.48;;;4.70;;
67544;SDS011;54380;47.770;11.150;2023-02-23T22:13:17;20.83;;;4.30;;
67544;SDS011;54380;47.770;11.150;2023-02-23T22:15:57;13.88;;;4.07;;
67544;SDS011;54380;47.770;11.150;2023-02-23T22:18:40;12.80;;;3.67;;
67544;SDS011;54380;47.770;11.150;2023-02-23T22:21:22;13.55;;;3.05;;
67544;SDS011;54380;47.770;11.150;2023-02-23T22:23:51;14.13;;;3.22;;
67544;SDS011;54380;47.770;11.150;2023-02-23T22:26:33;18.27;;;3.90;;
67544;SDS011;54380;47.770;11.150;2023-02-23T22:29:16;13.30;;;4.03;;
67544;SDS011;54380;47.770;11.150;2023-02-23T22:31:57;14.75;;;3.28;;
67544;SDS011;54380;47.770;11.150;2023-02-23T22:40:47;13.38;;;2.83;;
67544;SDS011;54380;47.770;11.150;2023-02-23T22:43:14;12.50;;;2.97;;
67544;SDS011;54380;47.770;11.150;2023-02-23T22:46:15;11.77;;;2.63;;
67544;SDS011;54380;47.770;11.150;2023-02-23T22:48:43;16.80;;;3.38;;
67544;SDS011;54380;47.770;11.150;2023-02-23T22:51:15;14.73;;;3.60;;
67544;SDS011;54380;47.770;11.150;2023-02-23T22:53:58;17.17;;;2.72;;
67544;SDS011;54380;47.770;11.150;2023-02-23T22:59:30;14.55;;;2.20;;
67544;SDS011;54380;47.770;11.150;2023-02-23T23:02:11;14.10;;;2.72;;
67544;SDS011;54380;47.770;11.150;2023-02-23T23:04:39;10.60;;;2.35;;
67544;SDS011;54380;47.770;11.150;2023-02-23T23:07:06;14.13;;;2.40;;
67544;SDS011;54380;47.770;11.150;2023-02-23T23:09:34;11.98;;;2.70;;
67544;SDS011;54380;47.770;11.150;2023-02-23T23:12:13;13.00;;;2.33;;
67544;SDS011;54380;47.770;11.150;2023-02-23T23:14:57;17.08;;;2.35;;
67544;SDS011;54380;47.770;11.150;2023-02-23T23:17:34;13.88;;;3.13;;
67544;SDS011;54380;47.770;11.150;2023-02-23T23:20:02;11.48;;;2.50;;
67544;SDS011;54380;47.770;11.150;2023-02-23T23:22:50;14.38;;;2.28;;
67544;SDS011;54380;47.770;11.150;2023-02-23T23:25:18;15.70;;;2.85;;
67544;SDS011;54380;47.770;11.150;2023-02-23T23:34:03;13.55;;;2.95;;
67544;SDS011;54380;47.770;11.150;2023-02-23T23:36:32;11.10;;;2.90;;
67544;SDS011;54380;47.770;11.150;2023-02-23T23:39:10;12.65;;;2.47;;
67544;SDS011;54380;47.770;11.150;2023-02-23T23:41:38;15.93;;;2.42;;
67544;SDS011;54380;47.770;11.150;2023-02-23T23:44:05;14.50;;;3.05;;
67544;SDS011;54380;47.770;11.150;2023-02-23T23:46:46;12.82;;;2.90;;
67544;SDS011;54380;47.770;11.150;2023-02-23T23:49:19;12.98;;;3.00;;
67544;SDS011;54380;47.770;11.150;2023-02-23T23:51:48;12.50;;;2.35;;
67544;SDS011;54380;47.770;11.150;2023-02-23T23:56:48;11.70;;;2.60;;
67544;SDS011;54380;47.770;11.150;2023-02-23T23:59:16;12.15;;;2.80;;
